Terminal Aerodrome Forecast
Issued by NWS

Current Version | Previous Version | Graphics & Text | Print | Product List | Glossary On
Versions: 1 2 3 4 5 6 7 8 9 10 11 12 13 14 15 16 17 18 19 20 21 22 23 24 25
000
FTUS41 KRNK 172322
TAFLWB
TAF
KLWB 172322Z 1800/1824 26006KT P6SM FEW250
     FM180900 28004KT P6SM FEW250 WS020/29035KT
     FM181300 26005KT P6SM SCT110
     FM181800 25008KT P6SM BKN110=

USA.gov is the U.S. government's official web portal to all federal, state and local government web resources and services.